Kyme — XUPY9 — position and weather

sailwx.info

Track history (hours):
 
Tides and Currents Weather Stations Pressure Air Temp Water Temp Dewpoint Dewpoint Depression Visibility Wind Speed Wind Dir Waves Ship Positions

Kyme

Last reported at 2014-Oct-21 03:07 UTC. Time now 2014-Oct-21 21:49 UTC.
Position N 46°36' E 031°30'.

Length 114 m; draft 2.1 m.

Type: Cargo ship. MMSI: 514283000.

Date/timePositionNaut miles runAvg speedWind from/ knotsBaromVisibWave heightAir tempDewpointWater temp
2014-Oct-21 03:07N 46°36' E 031°30'5 6.4
2014-Oct-21 02:16N 46°35' E 031°38'5 7.0
2014-Oct-21 01:33N 46°36' E 031°45'7 6.8
2014-Oct-21 00:33N 46°34' E 031°55'7 6.8
2014-Oct-20 23:33N 46°32' E 032°04'6 6.0
2014-Oct-20 22:33N 46°33' E 032°13'7 7.1
2014-Oct-20 21:33N 46°33' E 032°23'  
2014-Oct-14 17:12N 46°37' E 032°36'0 0.0
2014-Oct-14 16:33N 46°37' E 032°36'0 0.0
2014-Oct-14 15:30N 46°37' E 032°36'  
2014-Oct-11 13:11N 46°33' E 032°15'5 7.3
2014-Oct-11 12:31N 46°32' E 032°09'7 7.2
2014-Oct-11 11:33N 46°33' E 031°59'7 7.3
2014-Oct-11 10:33N 46°35' E 031°49'7 7.1
2014-Oct-11 09:32N 46°35' E 031°38'7 3.6
2014-Oct-11 07:30N 46°34' E 031°27'0 0.0
2014-Oct-11 06:32N 46°34' E 031°27'1 1.1
2014-Oct-11 05:33N 46°34' E 031°26'7 6.9
2014-Oct-11 04:33N 46°35' E 031°16'8 7.2
2014-Oct-11 03:29N 46°34' E 031°05'  
Track history (hours):
 
Tides and Currents Weather Stations Pressure Air Temp Water Temp Dewpoint Dewpoint Depression Visibility Wind Speed Wind Dir Waves Ship Positions

Kyme

Last reported at 2014-Oct-21 03:07 UTC. Time now 2014-Oct-21 21:49 UTC.
Position N 46°36' E 031°30'.

Length 114 m; draft 2.1 m.

Type: Cargo ship. MMSI: 514283000.

Date/timePositionNaut miles runAvg speedWind from/ knotsBaromVisibWave heightAir tempDewpointWater temp
2014-Oct-21 03:07N 46°36' E 031°30'5 6.4
2014-Oct-21 02:16N 46°35' E 031°38'5 7.0
2014-Oct-21 01:33N 46°36' E 031°45'7 6.8
2014-Oct-21 00:33N 46°34' E 031°55'7 6.8
2014-Oct-20 23:33N 46°32' E 032°04'6 6.0
2014-Oct-20 22:33N 46°33' E 032°13'7 7.1
2014-Oct-20 21:33N 46°33' E 032°23'  
2014-Oct-14 17:12N 46°37' E 032°36'0 0.0
2014-Oct-14 16:33N 46°37' E 032°36'0 0.0
2014-Oct-14 15:30N 46°37' E 032°36'  
2014-Oct-11 13:11N 46°33' E 032°15'5 7.3
2014-Oct-11 12:31N 46°32' E 032°09'7 7.2
2014-Oct-11 11:33N 46°33' E 031°59'7 7.3
2014-Oct-11 10:33N 46°35' E 031°49'7 7.1
2014-Oct-11 09:32N 46°35' E 031°38'7 3.6
2014-Oct-11 07:30N 46°34' E 031°27'0 0.0
2014-Oct-11 06:32N 46°34' E 031°27'1 1.1
2014-Oct-11 05:33N 46°34' E 031°26'7 6.9
2014-Oct-11 04:33N 46°35' E 031°16'8 7.2
2014-Oct-11 03:29N 46°34' E 031°05'  

Dump ship's entire track history